sensor_id;sensor_type;location;lat;lon;timestamp;P1;durP1;ratioP1;P2;durP2;ratioP2
56790;SDS011;42658;46.072;14.474;2022-08-06T00:02:39;2.40;;;2.20;;
56790;SDS011;42658;46.072;14.474;2022-08-06T00:05:07;2.60;;;2.40;;
56790;SDS011;42658;46.072;14.474;2022-08-06T00:07:43;2.30;;;2.10;;
56790;SDS011;42658;46.072;14.474;2022-08-06T00:10:14;3.10;;;2.35;;
56790;SDS011;42658;46.072;14.474;2022-08-06T00:12:42;2.65;;;2.30;;
56790;SDS011;42658;46.072;14.474;2022-08-06T00:15:13;2.80;;;2.55;;
56790;SDS011;42658;46.072;14.474;2022-08-06T00:17:41;2.30;;;2.10;;
56790;SDS011;42658;46.072;14.474;2022-08-06T00:20:08;2.55;;;2.33;;
56790;SDS011;42658;46.072;14.474;2022-08-06T00:22:36;2.58;;;2.38;;
56790;SDS011;42658;46.072;14.474;2022-08-06T00:25:07;2.60;;;2.40;;
56790;SDS011;42658;46.072;14.474;2022-08-06T00:27:35;2.65;;;2.40;;
56790;SDS011;42658;46.072;14.474;2022-08-06T00:30:07;2.85;;;2.40;;
56790;SDS011;42658;46.072;14.474;2022-08-06T00:32:47;3.15;;;2.50;;
56790;SDS011;42658;46.072;14.474;2022-08-06T00:35:18;2.28;;;2.08;;
56790;SDS011;42658;46.072;14.474;2022-08-06T00:37:54;2.80;;;2.17;;
56790;SDS011;42658;46.072;14.474;2022-08-06T00:40:27;2.65;;;2.30;;
56790;SDS011;42658;46.072;14.474;2022-08-06T00:42:57;2.72;;;2.15;;
56790;SDS011;42658;46.072;14.474;2022-08-06T00:45:27;3.03;;;2.42;;
56790;SDS011;42658;46.072;14.474;2022-08-06T00:48:03;2.55;;;2.30;;
56790;SDS011;42658;46.072;14.474;2022-08-06T00:50:33;3.05;;;2.50;;
56790;SDS011;42658;46.072;14.474;2022-08-06T00:53:00;3.83;;;2.33;;
56790;SDS011;42658;46.072;14.474;2022-08-06T00:55:29;3.90;;;2.35;;
56790;SDS011;42658;46.072;14.474;2022-08-06T00:58:05;2.97;;;2.47;;
56790;SDS011;42658;46.072;14.474;2022-08-06T01:00:38;4.65;;;2.67;;
56790;SDS011;42658;46.072;14.474;2022-08-06T01:03:10;2.63;;;2.42;;
56790;SDS011;42658;46.072;14.474;2022-08-06T01:05:53;3.00;;;2.70;;
56790;SDS011;42658;46.072;14.474;2022-08-06T01:08:40;3.50;;;2.50;;
56790;SDS011;42658;46.072;14.474;2022-08-06T01:11:10;2.83;;;2.35;;
56790;SDS011;42658;46.072;14.474;2022-08-06T01:13:38;3.38;;;2.42;;
56790;SDS011;42658;46.072;14.474;2022-08-06T01:16:46;3.35;;;2.40;;
56790;SDS011;42658;46.072;14.474;2022-08-06T01:22:17;4.93;;;2.38;;
56790;SDS011;42658;46.072;14.474;2022-08-06T01:30:59;3.40;;;2.40;;
56790;SDS011;42658;46.072;14.474;2022-08-06T01:33:38;2.88;;;2.60;;
56790;SDS011;42658;46.072;14.474;2022-08-06T01:36:46;3.58;;;2.50;;
56790;SDS011;42658;46.072;14.474;2022-08-06T01:39:35;3.42;;;2.70;;
56790;SDS011;42658;46.072;14.474;2022-08-06T01:42:24;3.08;;;2.53;;
56790;SDS011;42658;46.072;14.474;2022-08-06T01:45:01;3.20;;;2.17;;
56790;SDS011;42658;46.072;14.474;2022-08-06T01:47:29;5.63;;;2.78;;
56790;SDS011;42658;46.072;14.474;2022-08-06T01:50:19;2.83;;;2.55;;
56790;SDS011;42658;46.072;14.474;2022-08-06T01:52:53;3.20;;;2.53;;
56790;SDS011;42658;46.072;14.474;2022-08-06T01:55:26;3.53;;;2.65;;
56790;SDS011;42658;46.072;14.474;2022-08-06T01:58:15;4.57;;;2.78;;
56790;SDS011;42658;46.072;14.474;2022-08-06T02:00:55;2.80;;;2.55;;
56790;SDS011;42658;46.072;14.474;2022-08-06T02:06:28;4.40;;;2.70;;
56790;SDS011;42658;46.072;14.474;2022-08-06T02:09:04;3.08;;;2.60;;
56790;SDS011;42658;46.072;14.474;2022-08-06T02:14:39;3.45;;;2.60;;
56790;SDS011;42658;46.072;14.474;2022-08-06T02:17:28;3.50;;;2.30;;
56790;SDS011;42658;46.072;14.474;2022-08-06T02:20:23;3.05;;;2.30;;
56790;SDS011;42658;46.072;14.474;2022-08-06T02:23:07;3.92;;;2.60;;
56790;SDS011;42658;46.072;14.474;2022-08-06T02:25:39;3.38;;;2.63;;
56790;SDS011;42658;46.072;14.474;2022-08-06T02:28:07;4.13;;;2.80;;
56790;SDS011;42658;46.072;14.474;2022-08-06T02:30:37;2.88;;;2.40;;
56790;SDS011;42658;46.072;14.474;2022-08-06T02:33:08;3.45;;;2.60;;
56790;SDS011;42658;46.072;14.474;2022-08-06T02:35:47;3.38;;;2.60;;
56790;SDS011;42658;46.072;14.474;2022-08-06T02:40:57;4.25;;;2.72;;
56790;SDS011;42658;46.072;14.474;2022-08-06T02:43:32;4.65;;;2.80;;
56790;SDS011;42658;46.072;14.474;2022-08-06T02:46:17;3.85;;;2.67;;
56790;SDS011;42658;46.072;14.474;2022-08-06T02:48:52;2.70;;;2.40;;
56790;SDS011;42658;46.072;14.474;2022-08-06T02:51:34;2.72;;;2.53;;
56790;SDS011;42658;46.072;14.474;2022-08-06T02:54:31;3.50;;;2.50;;
56790;SDS011;42658;46.072;14.474;2022-08-06T02:57:16;2.50;;;2.30;;
56790;SDS011;42658;46.072;14.474;2022-08-06T02:59:49;3.03;;;2.53;;
56790;SDS011;42658;46.072;14.474;2022-08-06T03:02:22;3.17;;;2.88;;
56790;SDS011;42658;46.072;14.474;2022-08-06T03:04:51;3.10;;;2.47;;
56790;SDS011;42658;46.072;14.474;2022-08-06T03:07:24;3.65;;;2.60;;
56790;SDS011;42658;46.072;14.474;2022-08-06T03:09:56;5.10;;;3.17;;
56790;SDS011;42658;46.072;14.474;2022-08-06T03:12:24;2.70;;;2.50;;
56790;SDS011;42658;46.072;14.474;2022-08-06T03:14:55;4.57;;;2.55;;
56790;SDS011;42658;46.072;14.474;2022-08-06T03:17:33;2.92;;;2.60;;
56790;SDS011;42658;46.072;14.474;2022-08-06T03:20:00;2.90;;;2.40;;
56790;SDS011;42658;46.072;14.474;2022-08-06T03:22:28;3.95;;;2.70;;
56790;SDS011;42658;46.072;14.474;2022-08-06T03:25:05;3.40;;;2.80;;
56790;SDS011;42658;46.072;14.474;2022-08-06T03:27:35;2.75;;;2.50;;
56790;SDS011;42658;46.072;14.474;2022-08-06T03:30:09;2.85;;;2.60;;
56790;SDS011;42658;46.072;14.474;2022-08-06T03:33:04;4.32;;;2.80;;
56790;SDS011;42658;46.072;14.474;2022-08-06T03:35:55;3.20;;;2.70;;
56790;SDS011;42658;46.072;14.474;2022-08-06T03:38:26;3.55;;;2.70;;
56790;SDS011;42658;46.072;14.474;2022-08-06T03:40:55;3.22;;;2.85;;
56790;SDS011;42658;46.072;14.474;2022-08-06T03:43:24;5.20;;;2.90;;
56790;SDS011;42658;46.072;14.474;2022-08-06T03:45:56;3.50;;;2.85;;
56790;SDS011;42658;46.072;14.474;2022-08-06T03:48:26;3.22;;;2.70;;
56790;SDS011;42658;46.072;14.474;2022-08-06T03:51:05;2.92;;;2.50;;
56790;SDS011;42658;46.072;14.474;2022-08-06T03:53:38;3.97;;;2.85;;
56790;SDS011;42658;46.072;14.474;2022-08-06T03:56:13;3.08;;;2.78;;
56790;SDS011;42658;46.072;14.474;2022-08-06T03:58:54;3.20;;;2.90;;
56790;SDS011;42658;46.072;14.474;2022-08-06T04:01:26;3.05;;;2.58;;
56790;SDS011;42658;46.072;14.474;2022-08-06T04:03:55;3.08;;;2.78;;
56790;SDS011;42658;46.072;14.474;2022-08-06T04:06:23;2.97;;;2.72;;
56790;SDS011;42658;46.072;14.474;2022-08-06T04:08:53;2.80;;;2.60;;
56790;SDS011;42658;46.072;14.474;2022-08-06T04:11:20;3.97;;;2.58;;
56790;SDS011;42658;46.072;14.474;2022-08-06T04:14:07;3.97;;;2.60;;
56790;SDS011;42658;46.072;14.474;2022-08-06T04:16:37;3.30;;;2.50;;
56790;SDS011;42658;46.072;14.474;2022-08-06T04:19:06;3.10;;;2.35;;
56790;SDS011;42658;46.072;14.474;2022-08-06T04:21:38;2.83;;;2.25;;
56790;SDS011;42658;46.072;14.474;2022-08-06T04:24:25;2.85;;;2.40;;
56790;SDS011;42658;46.072;14.474;2022-08-06T04:26:56;2.72;;;2.40;;
56790;SDS011;42658;46.072;14.474;2022-08-06T04:29:31;4.30;;;2.80;;
56790;SDS011;42658;46.072;14.474;2022-08-06T04:32:20;2.70;;;2.50;;
56790;SDS011;42658;46.072;14.474;2022-08-06T04:34:55;3.33;;;2.63;;
56790;SDS011;42658;46.072;14.474;2022-08-06T04:37:42;2.80;;;2.60;;
56790;SDS011;42658;46.072;14.474;2022-08-06T04:40:16;3.50;;;2.60;;
56790;SDS011;42658;46.072;14.474;2022-08-06T04:43:00;2.97;;;2.58;;
56790;SDS011;42658;46.072;14.474;2022-08-06T04:45:28;3.38;;;2.92;;
56790;SDS011;42658;46.072;14.474;2022-08-06T04:48:15;2.95;;;2.60;;
56790;SDS011;42658;46.072;14.474;2022-08-06T04:50:46;5.03;;;2.70;;
56790;SDS011;42658;46.072;14.474;2022-08-06T04:53:15;4.63;;;2.75;;
56790;SDS011;42658;46.072;14.474;2022-08-06T04:56:03;2.75;;;2.55;;
56790;SDS011;42658;46.072;14.474;2022-08-06T04:58:40;3.63;;;2.63;;
56790;SDS011;42658;46.072;14.474;2022-08-06T05:01:07;4.07;;;2.80;;
56790;SDS011;42658;46.072;14.474;2022-08-06T05:03:36;2.42;;;2.22;;
56790;SDS011;42658;46.072;14.474;2022-08-06T05:06:25;3.67;;;2.90;;
56790;SDS011;42658;46.072;14.474;2022-08-06T05:09:00;3.65;;;2.75;;
56790;SDS011;42658;46.072;14.474;2022-08-06T05:11:48;3.13;;;2.70;;
56790;SDS011;42658;46.072;14.474;2022-08-06T05:14:39;3.45;;;2.80;;
56790;SDS011;42658;46.072;14.474;2022-08-06T05:17:13;3.72;;;2.70;;
56790;SDS011;42658;46.072;14.474;2022-08-06T05:19:48;3.78;;;2.60;;
56790;SDS011;42658;46.072;14.474;2022-08-06T05:22:19;3.75;;;2.65;;
56790;SDS011;42658;46.072;14.474;2022-08-06T05:25:07;3.10;;;2.60;;
56790;SDS011;42658;46.072;14.474;2022-08-06T05:27:47;3.05;;;2.75;;
56790;SDS011;42658;46.072;14.474;2022-08-06T05:30:40;3.05;;;2.47;;
56790;SDS011;42658;46.072;14.474;2022-08-06T05:33:21;3.33;;;2.92;;
56790;SDS011;42658;46.072;14.474;2022-08-06T05:35:57;3.40;;;2.47;;
56790;SDS011;42658;46.072;14.474;2022-08-06T05:38:28;3.35;;;2.97;;
56790;SDS011;42658;46.072;14.474;2022-08-06T05:40:57;2.90;;;2.60;;
56790;SDS011;42658;46.072;14.474;2022-08-06T05:43:26;3.33;;;2.90;;
56790;SDS011;42658;46.072;14.474;2022-08-06T05:46:18;3.28;;;2.90;;
56790;SDS011;42658;46.072;14.474;2022-08-06T05:52:07;3.55;;;2.90;;
56790;SDS011;42658;46.072;14.474;2022-08-06T05:57:15;4.25;;;2.60;;
56790;SDS011;42658;46.072;14.474;2022-08-06T06:00:08;3.60;;;2.80;;
56790;SDS011;42658;46.072;14.474;2022-08-06T06:02:57;3.83;;;2.58;;
56790;SDS011;42658;46.072;14.474;2022-08-06T06:05:28;2.95;;;2.60;;
56790;SDS011;42658;46.072;14.474;2022-08-06T06:08:15;3.05;;;2.45;;
56790;SDS011;42658;46.072;14.474;2022-08-06T06:11:05;3.20;;;2.90;;
56790;SDS011;42658;46.072;14.474;2022-08-06T06:13:36;3.58;;;2.90;;
56790;SDS011;42658;46.072;14.474;2022-08-06T06:17:01;4.70;;;2.85;;
56790;SDS011;42658;46.072;14.474;2022-08-06T06:19:35;3.55;;;2.85;;
56790;SDS011;42658;46.072;14.474;2022-08-06T06:22:21;3.30;;;2.90;;
56790;SDS011;42658;46.072;14.474;2022-08-06T06:25:02;3.10;;;2.80;;
56790;SDS011;42658;46.072;14.474;2022-08-06T06:31:11;3.42;;;2.92;;
56790;SDS011;42658;46.072;14.474;2022-08-06T06:34:43;2.80;;;2.45;;
56790;SDS011;42658;46.072;14.474;2022-08-06T06:46:12;3.35;;;2.70;;
56790;SDS011;42658;46.072;14.474;2022-08-06T06:49:18;3.53;;;2.78;;
56790;SDS011;42658;46.072;14.474;2022-08-06T06:52:28;3.75;;;2.65;;
56790;SDS011;42658;46.072;14.474;2022-08-06T06:55:14;3.40;;;2.78;;
56790;SDS011;42658;46.072;14.474;2022-08-06T07:00:50;3.00;;;2.70;;
56790;SDS011;42658;46.072;14.474;2022-08-06T07:03:39;3.38;;;2.67;;
56790;SDS011;42658;46.072;14.474;2022-08-06T07:06:08;3.10;;;2.72;;
56790;SDS011;42658;46.072;14.474;2022-08-06T07:08:57;3.22;;;2.78;;
56790;SDS011;42658;46.072;14.474;2022-08-06T07:11:37;3.30;;;2.67;;
56790;SDS011;42658;46.072;14.474;2022-08-06T07:14:25;3.42;;;2.97;;
56790;SDS011;42658;46.072;14.474;2022-08-06T07:16:59;2.65;;;2.35;;
56790;SDS011;42658;46.072;14.474;2022-08-06T07:19:47;2.88;;;2.58;;
56790;SDS011;42658;46.072;14.474;2022-08-06T07:22:16;3.22;;;2.92;;
56790;SDS011;42658;46.072;14.474;2022-08-06T07:24:50;2.85;;;2.55;;
56790;SDS011;42658;46.072;14.474;2022-08-06T07:27:23;3.00;;;2.70;;
56790;SDS011;42658;46.072;14.474;2022-08-06T07:30:08;3.30;;;2.75;;
56790;SDS011;42658;46.072;14.474;2022-08-06T07:32:37;3.65;;;2.95;;
56790;SDS011;42658;46.072;14.474;2022-08-06T07:37:43;3.10;;;2.90;;
56790;SDS011;42658;46.072;14.474;2022-08-06T07:40:30;4.22;;;2.92;;
56790;SDS011;42658;46.072;14.474;2022-08-06T07:43:00;3.40;;;2.70;;
56790;SDS011;42658;46.072;14.474;2022-08-06T07:45:50;3.70;;;2.90;;
56790;SDS011;42658;46.072;14.474;2022-08-06T07:49:07;3.03;;;2.67;;
56790;SDS011;42658;46.072;14.474;2022-08-06T07:51:18;3.47;;;2.90;;
56790;SDS011;42658;46.072;14.474;2022-08-06T07:54:00;3.42;;;2.75;;
56790;SDS011;42658;46.072;14.474;2022-08-06T07:56:35;3.53;;;2.78;;
56790;SDS011;42658;46.072;14.474;2022-08-06T07:59:03;3.13;;;2.78;;
56790;SDS011;42658;46.072;14.474;2022-08-06T08:01:37;3.10;;;2.85;;
56790;SDS011;42658;46.072;14.474;2022-08-06T08:04:15;3.58;;;2.75;;
56790;SDS011;42658;46.072;14.474;2022-08-06T08:07:18;3.92;;;2.90;;
56790;SDS011;42658;46.072;14.474;2022-08-06T08:09:45;3.15;;;2.58;;
56790;SDS011;42658;46.072;14.474;2022-08-06T08:12:29;3.20;;;2.70;;
56790;SDS011;42658;46.072;14.474;2022-08-06T08:15:05;3.35;;;2.80;;
56790;SDS011;42658;46.072;14.474;2022-08-06T08:17:48;3.03;;;2.72;;
56790;SDS011;42658;46.072;14.474;2022-08-06T08:20:24;3.22;;;2.90;;
56790;SDS011;42658;46.072;14.474;2022-08-06T08:23:05;2.90;;;2.60;;
56790;SDS011;42658;46.072;14.474;2022-08-06T08:25:34;3.65;;;2.72;;
56790;SDS011;42658;46.072;14.474;2022-08-06T08:28:10;2.70;;;2.50;;
56790;SDS011;42658;46.072;14.474;2022-08-06T08:30:42;3.00;;;2.70;;
56790;SDS011;42658;46.072;14.474;2022-08-06T08:33:15;3.17;;;2.72;;
56790;SDS011;42658;46.072;14.474;2022-08-06T08:35:44;3.38;;;3.05;;
56790;SDS011;42658;46.072;14.474;2022-08-06T08:38:30;3.88;;;2.60;;
56790;SDS011;42658;46.072;14.474;2022-08-06T08:41:00;3.28;;;2.88;;
56790;SDS011;42658;46.072;14.474;2022-08-06T08:43:36;3.08;;;2.78;;
56790;SDS011;42658;46.072;14.474;2022-08-06T08:46:26;3.03;;;2.72;;
56790;SDS011;42658;46.072;14.474;2022-08-06T08:49:01;3.55;;;3.00;;
56790;SDS011;42658;46.072;14.474;2022-08-06T08:51:34;4.07;;;3.08;;
56790;SDS011;42658;46.072;14.474;2022-08-06T08:54:09;3.15;;;2.60;;
56790;SDS011;42658;46.072;14.474;2022-08-06T08:56:44;3.20;;;2.90;;
56790;SDS011;42658;46.072;14.474;2022-08-06T08:59:32;4.88;;;2.90;;
56790;SDS011;42658;46.072;14.474;2022-08-06T09:02:20;3.15;;;2.78;;
56790;SDS011;42658;46.072;14.474;2022-08-06T09:04:50;3.42;;;2.92;;
56790;SDS011;42658;46.072;14.474;2022-08-06T09:07:18;3.67;;;3.33;;
56790;SDS011;42658;46.072;14.474;2022-08-06T09:10:06;4.95;;;3.33;;
56790;SDS011;42658;46.072;14.474;2022-08-06T09:12:37;3.50;;;3.20;;
56790;SDS011;42658;46.072;14.474;2022-08-06T09:15:12;4.18;;;3.05;;
56790;SDS011;42658;46.072;14.474;2022-08-06T09:17:43;5.53;;;3.35;;
56790;SDS011;42658;46.072;14.474;2022-08-06T09:20:32;5.43;;;2.95;;
56790;SDS011;42658;46.072;14.474;2022-08-06T09:23:01;3.55;;;3.20;;
56790;SDS011;42658;46.072;14.474;2022-08-06T09:25:52;4.00;;;2.97;;
56790;SDS011;42658;46.072;14.474;2022-08-06T09:31:08;4.43;;;3.35;;
56790;SDS011;42658;46.072;14.474;2022-08-06T09:36:44;4.10;;;3.42;;
56790;SDS011;42658;46.072;14.474;2022-08-06T09:39:12;3.50;;;3.20;;
56790;SDS011;42658;46.072;14.474;2022-08-06T09:41:49;4.05;;;3.40;;
56790;SDS011;42658;46.072;14.474;2022-08-06T09:44:18;5.22;;;3.65;;
56790;SDS011;42658;46.072;14.474;2022-08-06T09:47:03;3.50;;;3.20;;
56790;SDS011;42658;46.072;14.474;2022-08-06T09:49:44;3.45;;;3.03;;
56790;SDS011;42658;46.072;14.474;2022-08-06T09:52:26;4.10;;;3.40;;
56790;SDS011;42658;46.072;14.474;2022-08-06T09:54:53;4.50;;;3.47;;
56790;SDS011;42658;46.072;14.474;2022-08-06T09:57:23;4.88;;;3.58;;
56790;SDS011;42658;46.072;14.474;2022-08-06T10:00:02;4.25;;;3.30;;
56790;SDS011;42658;46.072;14.474;2022-08-06T10:02:40;4.85;;;3.33;;
56790;SDS011;42658;46.072;14.474;2022-08-06T10:05:16;3.88;;;3.45;;
56790;SDS011;42658;46.072;14.474;2022-08-06T10:07:46;5.07;;;3.00;;
56790;SDS011;42658;46.072;14.474;2022-08-06T10:13:20;3.50;;;2.97;;
56790;SDS011;42658;46.072;14.474;2022-08-06T10:16:14;3.53;;;3.03;;
56790;SDS011;42658;46.072;14.474;2022-08-06T10:18:47;2.88;;;2.67;;
56790;SDS011;42658;46.072;14.474;2022-08-06T10:21:32;3.13;;;2.83;;
56790;SDS011;42658;46.072;14.474;2022-08-06T10:24:11;3.08;;;2.63;;
56790;SDS011;42658;46.072;14.474;2022-08-06T10:26:51;2.85;;;2.55;;
56790;SDS011;42658;46.072;14.474;2022-08-06T10:29:20;2.85;;;2.55;;
56790;SDS011;42658;46.072;14.474;2022-08-06T10:31:52;2.95;;;2.53;;
56790;SDS011;42658;46.072;14.474;2022-08-06T10:34:22;2.90;;;2.60;;
56790;SDS011;42658;46.072;14.474;2022-08-06T10:36:59;3.75;;;2.60;;
56790;SDS011;42658;46.072;14.474;2022-08-06T10:39:58;2.75;;;2.55;;
56790;SDS011;42658;46.072;14.474;2022-08-06T10:42:35;4.35;;;2.60;;
56790;SDS011;42658;46.072;14.474;2022-08-06T10:45:07;4.25;;;2.70;;
56790;SDS011;42658;46.072;14.474;2022-08-06T10:47:43;3.38;;;2.60;;
56790;SDS011;42658;46.072;14.474;2022-08-06T10:50:30;2.80;;;2.50;;
56790;SDS011;42658;46.072;14.474;2022-08-06T10:53:17;3.30;;;2.72;;
56790;SDS011;42658;46.072;14.474;2022-08-06T10:56:06;2.65;;;2.45;;
56790;SDS011;42658;46.072;14.474;2022-08-06T10:58:37;2.70;;;2.50;;
56790;SDS011;42658;46.072;14.474;2022-08-06T11:01:08;3.13;;;2.50;;
56790;SDS011;42658;46.072;14.474;2022-08-06T11:03:46;3.15;;;2.85;;
56790;SDS011;42658;46.072;14.474;2022-08-06T11:12:54;3.00;;;2.65;;
56790;SDS011;42658;46.072;14.474;2022-08-06T11:15:43;2.92;;;2.53;;
56790;SDS011;42658;46.072;14.474;2022-08-06T11:18:11;2.83;;;2.10;;
56790;SDS011;42658;46.072;14.474;2022-08-06T11:20:53;2.53;;;2.30;;
56790;SDS011;42658;46.072;14.474;2022-08-06T11:23:24;2.47;;;2.28;;
56790;SDS011;42658;46.072;14.474;2022-08-06T11:26:13;3.30;;;2.70;;
56790;SDS011;42658;46.072;14.474;2022-08-06T11:29:05;3.13;;;2.40;;
56790;SDS011;42658;46.072;14.474;2022-08-06T11:31:34;2.60;;;2.40;;
56790;SDS011;42658;46.072;14.474;2022-08-06T11:34:22;3.58;;;2.42;;
56790;SDS011;42658;46.072;14.474;2022-08-06T11:37:42;3.35;;;2.53;;
56790;SDS011;42658;46.072;14.474;2022-08-06T11:40:26;2.92;;;2.40;;
56790;SDS011;42658;46.072;14.474;2022-08-06T11:42:54;3.58;;;2.30;;
56790;SDS011;42658;46.072;14.474;2022-08-06T11:45:21;2.67;;;2.40;;
56790;SDS011;42658;46.072;14.474;2022-08-06T11:48:09;2.80;;;2.38;;
56790;SDS011;42658;46.072;14.474;2022-08-06T11:53:36;3.25;;;2.42;;
56790;SDS011;42658;46.072;14.474;2022-08-06T11:56:18;2.92;;;2.33;;
56790;SDS011;42658;46.072;14.474;2022-08-06T11:59:10;3.58;;;2.40;;
56790;SDS011;42658;46.072;14.474;2022-08-06T12:01:46;2.60;;;2.40;;
56790;SDS011;42658;46.072;14.474;2022-08-06T12:04:38;4.47;;;2.83;;
56790;SDS011;42658;46.072;14.474;2022-08-06T12:07:28;4.90;;;2.70;;
56790;SDS011;42658;46.072;14.474;2022-08-06T12:18:00;3.45;;;2.63;;
56790;SDS011;42658;46.072;14.474;2022-08-06T12:20:46;4.45;;;2.90;;
56790;SDS011;42658;46.072;14.474;2022-08-06T12:23:22;4.45;;;2.70;;
56790;SDS011;42658;46.072;14.474;2022-08-06T12:26:10;3.65;;;2.38;;
56790;SDS011;42658;46.072;14.474;2022-08-06T12:28:37;4.13;;;2.50;;
56790;SDS011;42658;46.072;14.474;2022-08-06T12:31:05;3.88;;;2.78;;
56790;SDS011;42658;46.072;14.474;2022-08-06T12:33:52;3.67;;;2.83;;
56790;SDS011;42658;46.072;14.474;2022-08-06T12:36:19;4.15;;;2.70;;
56790;SDS011;42658;46.072;14.474;2022-08-06T12:38:57;4.80;;;2.70;;
56790;SDS011;42658;46.072;14.474;2022-08-06T12:41:33;3.45;;;2.55;;
56790;SDS011;42658;46.072;14.474;2022-08-06T12:44:12;3.80;;;2.47;;
56790;SDS011;42658;46.072;14.474;2022-08-06T12:47:10;4.43;;;2.58;;
56790;SDS011;42658;46.072;14.474;2022-08-06T12:49:39;3.08;;;2.30;;
56790;SDS011;42658;46.072;14.474;2022-08-06T12:52:16;4.72;;;3.00;;
56790;SDS011;42658;46.072;14.474;2022-08-06T12:54:55;3.85;;;2.63;;
56790;SDS011;42658;46.072;14.474;2022-08-06T12:57:23;3.50;;;2.75;;
56790;SDS011;42658;46.072;14.474;2022-08-06T13:00:12;2.45;;;2.25;;
56790;SDS011;42658;46.072;14.474;2022-08-06T13:02:40;2.92;;;2.70;;
56790;SDS011;42658;46.072;14.474;2022-08-06T13:05:11;4.53;;;2.70;;
56790;SDS011;42658;46.072;14.474;2022-08-06T13:07:40;2.90;;;2.50;;
56790;SDS011;42658;46.072;14.474;2022-08-06T13:10:10;3.78;;;2.50;;
56790;SDS011;42658;46.072;14.474;2022-08-06T13:13:04;4.65;;;2.72;;
56790;SDS011;42658;46.072;14.474;2022-08-06T13:16:01;3.95;;;2.70;;
56790;SDS011;42658;46.072;14.474;2022-08-06T13:18:30;3.40;;;2.58;;
56790;SDS011;42658;46.072;14.474;2022-08-06T13:21:18;3.15;;;2.70;;
56790;SDS011;42658;46.072;14.474;2022-08-06T13:23:48;3.63;;;2.70;;
56790;SDS011;42658;46.072;14.474;2022-08-06T13:26:20;4.23;;;2.53;;
56790;SDS011;42658;46.072;14.474;2022-08-06T13:29:06;4.05;;;2.75;;
56790;SDS011;42658;46.072;14.474;2022-08-06T13:32:12;4.60;;;3.03;;
56790;SDS011;42658;46.072;14.474;2022-08-06T13:35:01;4.00;;;2.70;;
56790;SDS011;42658;46.072;14.474;2022-08-06T13:37:46;3.38;;;2.58;;
56790;SDS011;42658;46.072;14.474;2022-08-06T13:40:38;3.38;;;2.92;;
56790;SDS011;42658;46.072;14.474;2022-08-06T13:46:09;3.17;;;2.73;;
56790;SDS011;42658;46.072;14.474;2022-08-06T13:48:54;3.92;;;3.20;;
56790;SDS011;42658;46.072;14.474;2022-08-06T13:51:24;5.50;;;2.70;;
56790;SDS011;42658;46.072;14.474;2022-08-06T13:53:54;4.05;;;2.75;;
56790;SDS011;42658;46.072;14.474;2022-08-06T13:56:25;3.40;;;3.08;;
56790;SDS011;42658;46.072;14.474;2022-08-06T13:58:54;3.33;;;2.90;;
56790;SDS011;42658;46.072;14.474;2022-08-06T14:01:22;3.55;;;2.90;;
56790;SDS011;42658;46.072;14.474;2022-08-06T14:04:00;3.20;;;2.90;;
56790;SDS011;42658;46.072;14.474;2022-08-06T14:06:27;3.58;;;3.15;;
56790;SDS011;42658;46.072;14.474;2022-08-06T14:08:54;4.15;;;3.00;;
56790;SDS011;42658;46.072;14.474;2022-08-06T14:11:24;3.90;;;2.70;;
56790;SDS011;42658;46.072;14.474;2022-08-06T14:13:53;3.63;;;3.05;;
56790;SDS011;42658;46.072;14.474;2022-08-06T14:16:20;3.40;;;2.67;;
56790;SDS011;42658;46.072;14.474;2022-08-06T14:18:49;2.90;;;2.70;;
56790;SDS011;42658;46.072;14.474;2022-08-06T14:21:28;3.25;;;2.92;;
56790;SDS011;42658;46.072;14.474;2022-08-06T14:23:56;4.18;;;2.97;;
56790;SDS011;42658;46.072;14.474;2022-08-06T14:26:32;4.43;;;3.35;;
56790;SDS011;42658;46.072;14.474;2022-08-06T14:28:59;4.70;;;3.38;;
56790;SDS011;42658;46.072;14.474;2022-08-06T14:31:49;5.07;;;3.28;;
56790;SDS011;42658;46.072;14.474;2022-08-06T14:34:22;4.28;;;3.15;;
56790;SDS011;42658;46.072;14.474;2022-08-06T14:37:02;4.78;;;3.20;;
56790;SDS011;42658;46.072;14.474;2022-08-06T14:39:39;5.10;;;3.38;;
56790;SDS011;42658;46.072;14.474;2022-08-06T14:42:25;3.30;;;3.00;;
56790;SDS011;42658;46.072;14.474;2022-08-06T14:45:13;3.83;;;3.05;;
56790;SDS011;42658;46.072;14.474;2022-08-06T14:47:47;6.28;;;2.90;;
56790;SDS011;42658;46.072;14.474;2022-08-06T14:50:26;3.90;;;2.95;;
56790;SDS011;42658;46.072;14.474;2022-08-06T14:53:06;3.35;;;2.78;;
56790;SDS011;42658;46.072;14.474;2022-08-06T14:55:41;3.17;;;2.75;;
56790;SDS011;42658;46.072;14.474;2022-08-06T14:58:28;3.30;;;2.78;;
56790;SDS011;42658;46.072;14.474;2022-08-06T15:00:56;3.53;;;2.65;;
56790;SDS011;42658;46.072;14.474;2022-08-06T15:03:23;2.85;;;2.58;;
56790;SDS011;42658;46.072;14.474;2022-08-06T15:05:53;4.22;;;2.50;;
56790;SDS011;42658;46.072;14.474;2022-08-06T15:08:30;4.70;;;3.10;;
56790;SDS011;42658;46.072;14.474;2022-08-06T15:10:58;2.67;;;2.47;;
56790;SDS011;42658;46.072;14.474;2022-08-06T15:13:27;3.72;;;2.80;;
56790;SDS011;42658;46.072;14.474;2022-08-06T15:16:02;3.15;;;2.47;;
56790;SDS011;42658;46.072;14.474;2022-08-06T15:18:47;2.83;;;2.53;;
56790;SDS011;42658;46.072;14.474;2022-08-06T15:21:34;2.47;;;2.28;;
56790;SDS011;42658;46.072;14.474;2022-08-06T15:24:16;2.60;;;2.40;;
56790;SDS011;42658;46.072;14.474;2022-08-06T15:26:44;2.63;;;2.40;;
56790;SDS011;42658;46.072;14.474;2022-08-06T15:29:15;3.45;;;2.47;;
56790;SDS011;42658;46.072;14.474;2022-08-06T15:31:45;2.85;;;2.55;;
56790;SDS011;42658;46.072;14.474;2022-08-06T15:34:13;2.70;;;2.50;;
56790;SDS011;42658;46.072;14.474;2022-08-06T15:36:52;2.60;;;2.40;;
56790;SDS011;42658;46.072;14.474;2022-08-06T15:39:32;2.80;;;2.40;;
56790;SDS011;42658;46.072;14.474;2022-08-06T15:42:19;2.78;;;2.40;;
56790;SDS011;42658;46.072;14.474;2022-08-06T15:44:49;3.45;;;2.75;;
56790;SDS011;42658;46.072;14.474;2022-08-06T15:47:18;2.88;;;2.53;;
56790;SDS011;42658;46.072;14.474;2022-08-06T15:49:57;2.67;;;2.47;;
56790;SDS011;42658;46.072;14.474;2022-08-06T15:55:02;2.80;;;2.60;;
56790;SDS011;42658;46.072;14.474;2022-08-06T15:57:42;3.17;;;2.50;;
56790;SDS011;42658;46.072;14.474;2022-08-06T16:00:30;2.83;;;2.53;;
56790;SDS011;42658;46.072;14.474;2022-08-06T16:03:01;2.83;;;2.30;;
56790;SDS011;42658;46.072;14.474;2022-08-06T16:05:33;2.53;;;2.33;;
56790;SDS011;42658;46.072;14.474;2022-08-06T16:08:21;3.40;;;2.80;;
56790;SDS011;42658;46.072;14.474;2022-08-06T16:11:00;3.13;;;2.83;;
56790;SDS011;42658;46.072;14.474;2022-08-06T16:13:34;2.60;;;2.38;;
56790;SDS011;42658;46.072;14.474;2022-08-06T16:16:03;2.70;;;2.42;;
56790;SDS011;42658;46.072;14.474;2022-08-06T16:18:30;3.00;;;2.42;;
56790;SDS011;42658;46.072;14.474;2022-08-06T16:21:01;3.28;;;2.63;;
56790;SDS011;42658;46.072;14.474;2022-08-06T16:23:36;2.58;;;2.38;;
56790;SDS011;42658;46.072;14.474;2022-08-06T16:26:23;3.03;;;2.50;;
56790;SDS011;42658;46.072;14.474;2022-08-06T16:29:10;2.50;;;2.28;;
56790;SDS011;42658;46.072;14.474;2022-08-06T16:31:37;2.53;;;2.33;;
56790;SDS011;42658;46.072;14.474;2022-08-06T16:34:16;2.75;;;2.20;;
56790;SDS011;42658;46.072;14.474;2022-08-06T16:36:56;3.63;;;2.53;;
56790;SDS011;42658;46.072;14.474;2022-08-06T16:39:25;3.03;;;2.58;;
56790;SDS011;42658;46.072;14.474;2022-08-06T16:42:02;3.03;;;2.72;;
56790;SDS011;42658;46.072;14.474;2022-08-06T16:44:35;3.08;;;2.78;;
56790;SDS011;42658;46.072;14.474;2022-08-06T16:47:23;2.60;;;2.40;;
56790;SDS011;42658;46.072;14.474;2022-08-06T16:50:12;2.75;;;2.50;;